createdAt,value
2022-07-29T00:00:00.659Z,97536.94
2022-07-29T00:02:28.100Z,97538.38
2022-07-29T00:04:55.430Z,97531.81
2022-07-29T00:07:22.762Z,97531.69
2022-07-29T00:09:51.047Z,97526.25
2022-07-29T00:12:21.409Z,97531.03
2022-07-29T00:14:55.365Z,97533.44
2022-07-29T00:17:24.081Z,97524.03
2022-07-29T00:19:51.365Z,97519.06
2022-07-29T00:22:18.676Z,97513.66
2022-07-29T00:24:45.916Z,97514.31
2022-07-29T00:27:13.082Z,97519.41
2022-07-29T00:29:40.261Z,97522.59
2022-07-29T00:32:07.949Z,97530.59
2022-07-29T00:34:36.571Z,97522.75
2022-07-29T00:37:03.777Z,97525.16
2022-07-29T00:39:30.969Z,97520.22
2022-07-29T00:41:58.153Z,97524.34
2022-07-29T00:44:25.305Z,97514.94
2022-07-29T00:46:52.884Z,97510.59
2022-07-29T00:49:20.217Z,97505.50
2022-07-29T00:51:50.382Z,97507.72
2022-07-29T00:54:18.017Z,97507.88
2022-07-29T00:56:45.666Z,97507.25
2022-07-29T00:59:12.841Z,97515.53
2022-07-29T01:01:40.191Z,97518.75
2022-07-29T01:04:07.795Z,97513.94
2022-07-29T01:06:36.388Z,97520.97
2022-07-29T01:09:05.377Z,97505.03
2022-07-29T01:11:33.553Z,97498.16
2022-07-29T01:14:01.879Z,97506.78
2022-07-29T01:16:34.389Z,97502.44
2022-07-29T01:19:13.846Z,97499.91
2022-07-29T01:21:52.462Z,97499.00
2022-07-29T01:24:43.765Z,97493.38
2022-07-29T01:27:33.520Z,97487.16
2022-07-29T01:30:05.288Z,97486.34
2022-07-29T01:32:38.206Z,97486.34
2022-07-29T01:35:11.414Z,97479.94
2022-07-29T01:37:43.529Z,97480.44
2022-07-29T01:40:19.364Z,97476.44
2022-07-29T01:42:52.674Z,97481.38
2022-07-29T01:45:25.691Z,97460.78
2022-07-29T01:47:59.475Z,97474.03
2022-07-29T01:50:30.354Z,97468.28
2022-07-29T01:53:00.998Z,97465.28
2022-07-29T01:55:31.998Z,97462.06
2022-07-29T01:58:01.984Z,97457.75
2022-07-29T02:00:31.866Z,97454.53
2022-07-29T02:03:00.270Z,97450.56
2022-07-29T02:05:29.776Z,97452.84
2022-07-29T02:08:00.162Z,97449.31
2022-07-29T02:10:32.418Z,97447.06
2022-07-29T02:13:00.735Z,97447.06
2022-07-29T02:15:32.755Z,97445.81
2022-07-29T02:18:05.537Z,97441.03
2022-07-29T02:20:33.734Z,97437.97
2022-07-29T02:23:02.568Z,97440.69
2022-07-29T02:25:36.822Z,97436.38
2022-07-29T02:28:06.736Z,97437.66
2022-07-29T02:30:40.123Z,97440.03
2022-07-29T02:33:08.835Z,97448.50
2022-07-29T02:35:36.491Z,97453.59
2022-07-29T02:38:04.635Z,97457.13
2022-07-29T02:40:32.152Z,97461.44
2022-07-29T02:43:00.268Z,97460.31
2022-07-29T02:45:28.721Z,97455.22
2022-07-29T02:48:00.620Z,97446.59
2022-07-29T02:50:32.721Z,97449.31
2022-07-29T02:53:06.413Z,97451.22
2022-07-29T02:55:37.917Z,97449.00
2022-07-29T02:58:11.914Z,97458.28
2022-07-29T03:00:41.346Z,97464.50
2022-07-29T03:03:15.492Z,97459.84
2022-07-29T03:05:42.959Z,97456.34
2022-07-29T03:08:12.369Z,97455.88
2022-07-29T03:10:43.543Z,97459.69
2022-07-29T03:13:12.230Z,97454.91
2022-07-29T03:15:39.965Z,97439.41
2022-07-29T03:18:07.969Z,97456.97
2022-07-29T03:20:38.359Z,97449.16
2022-07-29T03:23:05.630Z,97450.56
2022-07-29T03:25:32.828Z,97451.69
2022-07-29T03:28:00.443Z,97459.03
2022-07-29T03:30:28.050Z,97456.66
2022-07-29T03:32:56.631Z,97462.88
2022-07-29T03:35:26.110Z,97454.59
2022-07-29T03:37:54.655Z,97452.19
2022-07-29T03:40:26.208Z,97454.06
2022-07-29T03:42:56.439Z,97455.69
2022-07-29T03:45:25.189Z,97463.53
2022-07-29T03:48:00.604Z,97472.16
2022-07-29T03:50:29.661Z,97464.81
2022-07-29T03:52:59.045Z,97469.63
2022-07-29T03:55:27.273Z,97477.41
2022-07-29T03:57:56.345Z,97477.28
2022-07-29T04:00:25.207Z,97474.41
2022-07-29T04:02:52.434Z,97468.78
2022-07-29T04:05:20.032Z,97480.00
2022-07-29T04:07:48.545Z,97482.22
2022-07-29T04:10:17.733Z,97490.38
2022-07-29T04:12:55.488Z,97498.03
2022-07-29T04:15:22.715Z,97497.19
2022-07-29T04:17:49.837Z,97494.00
2022-07-29T04:20:17.059Z,97496.53
2022-07-29T04:22:44.253Z,97498.94
2022-07-29T04:25:11.463Z,97499.75
2022-07-29T04:27:39.964Z,97507.09
2022-07-29T04:30:08.259Z,97505.69
2022-07-29T04:32:35.390Z,97505.34
2022-07-29T04:35:02.587Z,97502.00
2022-07-29T04:37:29.738Z,97501.06
2022-07-29T04:39:56.875Z,97502.38
2022-07-29T04:42:26.689Z,97508.91
2022-07-29T04:44:56.361Z,97508.41
2022-07-29T04:47:23.611Z,97504.91
2022-07-29T04:49:50.728Z,97493.72
2022-07-29T04:52:17.914Z,97500.25
2022-07-29T04:54:45.070Z,97503.78
2022-07-29T04:57:12.224Z,97498.38
2022-07-29T04:59:39.374Z,97514.81
2022-07-29T05:02:07.914Z,97513.06
2022-07-29T05:04:35.050Z,97511.91
2022-07-29T05:07:02.224Z,97503.75
2022-07-29T05:09:29.362Z,97509.81
2022-07-29T05:11:56.521Z,97516.19
2022-07-29T05:14:23.701Z,97517.47
2022-07-29T05:16:50.855Z,97515.88
2022-07-29T05:19:19.530Z,97522.59
2022-07-29T05:21:46.680Z,97520.00
2022-07-29T05:24:14.246Z,97517.34
2022-07-29T05:26:43.506Z,97511.25
2022-07-29T05:29:44.028Z,97514.31
2022-07-29T05:31:57.770Z,97523.72
2022-07-29T05:34:26.294Z,97527.25
2022-07-29T05:36:53.486Z,97518.31
2022-07-29T05:39:20.704Z,97519.56
2022-07-29T05:41:51.818Z,97523.09
2022-07-29T05:44:19.776Z,97518.78
2022-07-29T05:46:46.989Z,97534.59
2022-07-29T05:49:26.930Z,97532.97
2022-07-29T05:51:56.102Z,97540.31
2022-07-29T05:54:23.245Z,97534.72
2022-07-29T05:56:50.451Z,97531.22
2022-07-29T05:59:18.103Z,97523.38
2022-07-29T06:01:45.672Z,97533.13
2022-07-29T06:04:13.075Z,97529.47
2022-07-29T06:06:40.650Z,97529.47
2022-07-29T06:09:12.754Z,97524.66
2022-07-29T06:11:41.553Z,97533.63
2022-07-29T06:14:08.675Z,97515.91
2022-07-29T06:16:35.915Z,97519.41
2022-07-29T06:19:03.395Z,97521.81
2022-07-29T06:21:30.528Z,97517.16
2022-07-29T06:23:57.735Z,97524.53
2022-07-29T06:26:30.339Z,97525.00
2022-07-29T06:28:58.452Z,97527.25
2022-07-29T06:31:25.647Z,97523.44
2022-07-29T06:33:54.682Z,97527.72
2022-07-29T06:36:22.928Z,97528.38
2022-07-29T06:38:52.309Z,97530.25
2022-07-29T06:41:20.898Z,97534.72
2022-07-29T06:43:51.731Z,97533.13
2022-07-29T06:46:21.289Z,97538.06
2022-07-29T06:48:49.151Z,97546.22
2022-07-29T06:51:16.788Z,97548.28
2022-07-29T06:54:00.262Z,97556.91
2022-07-29T06:56:30.764Z,97558.34
2022-07-29T06:58:59.285Z,97556.91
2022-07-29T07:01:28.749Z,97562.53
2022-07-29T07:03:55.922Z,97560.47
2022-07-29T07:06:23.175Z,97563.16
2022-07-29T07:08:50.331Z,97558.06
2022-07-29T07:11:17.482Z,97566.38
2022-07-29T07:13:44.660Z,97564.94
2022-07-29T07:16:13.508Z,97568.94
2022-07-29T07:18:40.720Z,97567.66
2022-07-29T07:21:07.941Z,97570.84
2022-07-29T07:23:35.098Z,97569.56
2022-07-29T07:26:02.251Z,97568.75
2022-07-29T07:28:29.581Z,97567.66
2022-07-29T07:30:56.750Z,97572.09
2022-07-29T07:33:25.273Z,97567.16
2022-07-29T07:35:52.494Z,97568.41
2022-07-29T07:38:19.671Z,97560.28
2022-07-29T07:40:46.821Z,97553.41
2022-07-29T07:43:14.023Z,97553.22
2022-07-29T07:45:41.269Z,97563.47
2022-07-29T07:48:08.545Z,97550.88
2022-07-29T07:50:37.133Z,97554.88
2022-07-29T07:53:04.455Z,97555.66
2022-07-29T07:55:47.563Z,97558.06
2022-07-29T07:58:18.723Z,97552.63
2022-07-29T08:00:45.962Z,97556.16
2022-07-29T08:03:16.935Z,97551.72
2022-07-29T08:05:45.907Z,97544.69
2022-07-29T08:08:13.093Z,97550.91
2022-07-29T08:10:40.256Z,97550.41
2022-07-29T08:13:09.020Z,97546.91
2022-07-29T08:15:36.625Z,97552.63
2022-07-29T08:18:08.481Z,97554.56
2022-07-29T08:20:36.516Z,97554.09
2022-07-29T08:23:06.050Z,97553.28
2022-07-29T08:25:33.219Z,97553.09
2022-07-29T08:28:04.925Z,97547.00
2022-07-29T08:30:32.381Z,97552.94
2022-07-29T08:32:59.926Z,97559.34
2022-07-29T08:35:29.172Z,97556.63
2022-07-29T08:37:59.327Z,97558.53
2022-07-29T08:40:32.137Z,97564.94
2022-07-29T08:43:04.637Z,97565.25
2022-07-29T08:45:41.982Z,97563.81
2022-07-29T08:48:15.883Z,97559.69
2022-07-29T08:50:46.489Z,97559.38
2022-07-29T08:53:15.187Z,97553.44
2022-07-29T08:55:45.040Z,97563.19
2022-07-29T08:58:15.615Z,97559.38
2022-07-29T09:00:45.729Z,97559.03
2022-07-29T09:03:16.889Z,97559.69
2022-07-29T09:05:48.140Z,97552.63
2022-07-29T09:08:16.857Z,97558.88
2022-07-29T09:10:45.934Z,97557.28
2022-07-29T09:13:13.161Z,97552.63
2022-07-29T09:15:40.373Z,97554.88
2022-07-29T09:18:07.597Z,97556.13
2022-07-29T09:20:53.517Z,97551.81
2022-07-29T09:23:23.420Z,97554.69
2022-07-29T09:25:53.410Z,97555.03
2022-07-29T09:28:20.551Z,97551.00
2022-07-29T09:30:54.962Z,97551.19
2022-07-29T09:33:23.136Z,97547.97
2022-07-29T09:36:00.588Z,97548.78
2022-07-29T09:38:29.170Z,97550.22
2022-07-29T09:41:05.745Z,97541.78
2022-07-29T09:43:34.038Z,97544.97
2022-07-29T09:46:12.265Z,97548.81
2022-07-29T09:48:39.793Z,97539.56
2022-07-29T09:51:20.568Z,97549.00
2022-07-29T09:53:49.467Z,97551.25
2022-07-29T09:56:17.970Z,97539.25
2022-07-29T09:58:45.173Z,97537.66
2022-07-29T10:01:13.422Z,97543.09
2022-07-29T10:03:52.189Z,97536.84
2022-07-29T10:06:19.458Z,97530.13
2022-07-29T10:08:47.503Z,97532.19
2022-07-29T10:11:16.740Z,97530.25
2022-07-29T10:13:46.759Z,97526.44
2022-07-29T10:16:15.331Z,97517.66
2022-07-29T10:18:43.400Z,97519.88
2022-07-29T10:21:10.647Z,97521.19
2022-07-29T10:23:46.807Z,97522.28
2022-07-29T10:26:14.587Z,97520.84
2022-07-29T10:28:41.762Z,97510.50
2022-07-29T10:31:20.203Z,97506.66
2022-07-29T10:33:59.098Z,97505.56
2022-07-29T10:36:44.098Z,97502.19
2022-07-29T10:39:24.967Z,97501.09
2022-07-29T10:42:06.977Z,97503.00
2022-07-29T10:44:37.179Z,97508.75
2022-07-29T10:47:06.211Z,97505.22
2022-07-29T10:49:34.527Z,97501.41
2022-07-29T10:52:06.029Z,97497.91
2022-07-29T10:54:47.751Z,97499.78
2022-07-29T10:57:17.685Z,97503.63
2022-07-29T10:59:46.990Z,97504.91
2022-07-29T11:02:44.766Z,97501.72
2022-07-29T11:05:14.351Z,97505.22
2022-07-29T11:08:26.260Z,97494.84
2022-07-29T11:11:37.652Z,97492.59
2022-07-29T11:14:04.991Z,97491.00
2022-07-29T11:17:00.429Z,97480.13
2022-07-29T11:19:30.609Z,97474.88
2022-07-29T11:21:58.688Z,97474.56
2022-07-29T11:24:30.092Z,97477.75
2022-07-29T11:27:11.217Z,97487.53
2022-07-29T11:30:01.242Z,97466.59
2022-07-29T11:32:38.012Z,97476.84
2022-07-29T11:35:37.396Z,97464.34
2022-07-29T11:38:28.013Z,97465.16
2022-07-29T11:44:08.929Z,97464.84
2022-07-29T11:46:47.501Z,97467.56
2022-07-29T11:49:20.436Z,97460.69
2022-07-29T11:51:53.460Z,97467.56
2022-07-29T11:54:27.514Z,97464.66
2022-07-29T11:56:55.104Z,97468.16
2022-07-29T11:59:22.767Z,97469.44
2022-07-29T12:02:18.428Z,97477.28
2022-07-29T12:04:51.694Z,97476.66
2022-07-29T12:07:33.688Z,97471.22
2022-07-29T12:10:03.846Z,97468.34
2022-07-29T12:12:31.043Z,97467.75
2022-07-29T12:14:58.248Z,97475.13
2022-07-29T12:17:30.582Z,97463.13
2022-07-29T12:20:00.086Z,97456.91
2022-07-29T12:22:30.123Z,97455.16
2022-07-29T12:25:31.919Z,97454.34
2022-07-29T12:27:59.750Z,97454.03
2022-07-29T12:30:39.419Z,97454.03
2022-07-29T12:33:23.229Z,97462.50
2022-07-29T12:36:06.045Z,97461.72
2022-07-29T12:38:36.447Z,97456.28
2022-07-29T12:41:04.345Z,97451.94
2022-07-29T12:43:32.489Z,97455.91
2022-07-29T12:46:13.415Z,97440.72
2022-07-29T12:48:42.085Z,97438.66
2022-07-29T12:51:10.350Z,97430.19
2022-07-29T12:53:39.411Z,97430.34
2022-07-29T12:56:41.392Z,97427.47
2022-07-29T12:59:12.770Z,97425.75
2022-07-29T13:01:39.960Z,97425.91
2022-07-29T13:04:07.320Z,97422.56
2022-07-29T13:06:38.258Z,97432.31
2022-07-29T13:09:09.721Z,97425.44
2022-07-29T13:11:39.391Z,97423.50
2022-07-29T13:14:08.285Z,97415.06
2022-07-29T13:16:35.752Z,97409.63
2022-07-29T13:19:10.979Z,97409.00
2022-07-29T13:21:39.140Z,97407.38
2022-07-29T13:24:08.279Z,97411.38
2022-07-29T13:26:36.031Z,97407.88
2022-07-29T13:29:03.378Z,97400.03
2022-07-29T13:31:31.057Z,97404.84
2022-07-29T13:33:58.184Z,97399.06
2022-07-29T13:36:25.481Z,97399.38
2022-07-29T13:38:52.656Z,97393.47
2022-07-29T13:41:21.191Z,97391.59
2022-07-29T13:43:48.358Z,97382.94
2022-07-29T13:46:17.312Z,97382.63
2022-07-29T13:48:44.604Z,97383.44
2022-07-29T13:51:12.059Z,97385.66
2022-07-29T13:53:39.189Z,97381.19
2022-07-29T13:56:06.390Z,97386.28
2022-07-29T13:58:35.127Z,97388.84
2022-07-29T14:01:02.327Z,97374.97
2022-07-29T14:03:29.515Z,97376.53
2022-07-29T14:05:56.660Z,97378.94
2022-07-29T14:08:23.839Z,97361.38
2022-07-29T14:10:51.319Z,97373.50
2022-07-29T14:13:25.218Z,97368.06
2022-07-29T14:15:54.800Z,97357.38
2022-07-29T14:18:21.997Z,97359.63
2022-07-29T14:20:49.309Z,97358.00
2022-07-29T14:23:16.523Z,97362.81
2022-07-29T14:25:44.575Z,97358.19
2022-07-29T14:28:12.295Z,97356.09
2022-07-29T14:30:41.869Z,97354.81
2022-07-29T14:33:10.395Z,97354.03
2022-07-29T14:35:37.609Z,97355.63
2022-07-29T14:38:04.790Z,97350.66
2022-07-29T14:40:31.976Z,97359.13
2022-07-29T14:42:59.150Z,97363.94
2022-07-29T14:45:26.323Z,97367.59
2022-07-29T14:47:57.263Z,97371.59
2022-07-29T14:50:31.329Z,97384.06
2022-07-29T14:52:59.025Z,97397.34
2022-07-29T14:55:26.561Z,97411.41
2022-07-29T14:57:59.464Z,97414.91
2022-07-29T15:00:33.138Z,97413.31
2022-07-29T15:03:02.413Z,97420.34
2022-07-29T15:05:32.259Z,97419.84
2022-07-29T15:08:00.065Z,97408.69
2022-07-29T15:10:27.263Z,97396.19
2022-07-29T15:12:54.443Z,97395.41
2022-07-29T15:15:21.874Z,97388.06
2022-07-29T15:17:49.008Z,97377.69
2022-07-29T15:20:16.471Z,97379.91
2022-07-29T15:22:44.992Z,97381.03
2022-07-29T15:25:12.158Z,97370.63
2022-07-29T15:27:39.314Z,97374.97
2022-07-29T15:30:07.782Z,97370.31
2022-07-29T15:32:34.963Z,97374.81
2022-07-29T15:35:02.211Z,97361.53
2022-07-29T15:37:29.349Z,97363.78
2022-07-29T15:40:17.957Z,97357.38
2022-07-29T15:42:45.087Z,97353.41
2022-07-29T15:45:12.236Z,97344.09
2022-07-29T15:47:39.403Z,97357.53
2022-07-29T15:50:07.711Z,97356.28
2022-07-29T15:52:34.842Z,97361.69
2022-07-29T15:55:02.002Z,97369.38
2022-07-29T15:57:30.513Z,97378.31
2022-07-29T15:59:57.704Z,97379.75
2022-07-29T16:02:24.897Z,97379.41
2022-07-29T16:04:52.096Z,97380.25
2022-07-29T16:07:19.376Z,97374.00
2022-07-29T16:09:52.384Z,97379.25
2022-07-29T16:12:20.279Z,97381.66
2022-07-29T16:14:48.847Z,97380.41
2022-07-29T16:17:16.026Z,97381.84
2022-07-29T16:19:43.954Z,97382.78
2022-07-29T16:22:11.970Z,97387.41
2022-07-29T16:24:39.241Z,97383.91
2022-07-29T16:27:06.423Z,97391.72
2022-07-29T16:29:33.648Z,97385.16
2022-07-29T16:32:02.840Z,97383.75
2022-07-29T16:34:30.053Z,97384.84
2022-07-29T16:36:57.230Z,97390.75
2022-07-29T16:39:24.374Z,97386.16
2022-07-29T16:41:51.573Z,97389.97
2022-07-29T16:44:18.710Z,97389.19
2022-07-29T16:46:45.937Z,97391.91
2022-07-29T16:49:18.363Z,97381.81
2022-07-29T16:51:46.804Z,97390.59
2022-07-29T16:54:13.947Z,97387.25
2022-07-29T16:56:41.231Z,97406.59
2022-07-29T16:59:08.460Z,97401.97
2022-07-29T17:01:35.630Z,97395.06
2022-07-29T17:04:02.833Z,97403.22
2022-07-29T17:06:31.362Z,97405.16
2022-07-29T17:08:58.531Z,97412.97
2022-07-29T17:11:53.270Z,97409.13
2022-07-29T17:14:12.791Z,97411.84
2022-07-29T17:16:39.970Z,97419.38
2022-07-29T17:19:07.187Z,97422.41
2022-07-29T17:21:35.755Z,97429.63
2022-07-29T17:24:14.516Z,97423.06
2022-07-29T17:26:41.682Z,97425.44
2022-07-29T17:29:08.908Z,97437.09
2022-07-29T17:31:38.527Z,97440.13
2022-07-29T17:34:05.752Z,97432.00
2022-07-29T17:36:33.293Z,97434.72
2022-07-29T17:39:05.041Z,97432.00
2022-07-29T17:41:32.263Z,97444.78
2022-07-29T17:43:59.518Z,97437.44
2022-07-29T17:46:27.495Z,97447.50
2022-07-29T17:48:55.245Z,97449.88
2022-07-29T17:51:22.924Z,97449.88
2022-07-29T17:53:50.241Z,97459.50
2022-07-29T17:56:19.367Z,97455.34
2022-07-29T17:58:46.587Z,97454.53
2022-07-29T18:01:13.858Z,97460.13
2022-07-29T18:03:41.227Z,97460.25
2022-07-29T18:06:08.740Z,97470.50
2022-07-29T18:08:36.051Z,97465.38
2022-07-29T18:11:03.569Z,97468.59
2022-07-29T18:13:32.394Z,97467.78
2022-07-29T18:16:00.634Z,97474.19
2022-07-29T18:18:28.154Z,97480.41
2022-07-29T18:20:55.578Z,97482.03
2022-07-29T18:23:22.747Z,97483.28
2022-07-29T18:25:49.923Z,97492.09
2022-07-29T18:28:17.213Z,97492.88
2022-07-29T18:30:47.124Z,97497.53
2022-07-29T18:33:22.514Z,97495.91
2022-07-29T18:35:52.414Z,97491.28
2022-07-29T18:38:37.246Z,97485.53
2022-07-29T18:41:04.379Z,97493.69
2022-07-29T18:43:31.553Z,97505.50
2022-07-29T18:46:00.088Z,97522.44
2022-07-29T18:48:27.481Z,97516.50
2022-07-29T18:50:54.633Z,97525.44
2022-07-29T18:53:21.787Z,97528.03
2022-07-29T18:55:48.924Z,97530.75
2022-07-29T18:58:16.095Z,97538.91
2022-07-29T19:00:43.269Z,97535.06
2022-07-29T19:03:11.954Z,97527.72
2022-07-29T19:05:39.189Z,97535.22
2022-07-29T19:08:06.380Z,97552.00
2022-07-29T19:10:33.561Z,97551.69
2022-07-29T19:13:00.718Z,97553.94
2022-07-29T19:15:27.945Z,97565.28
2022-07-29T19:17:59.163Z,97567.50
2022-07-29T19:20:29.619Z,97577.59
2022-07-29T19:22:56.835Z,97573.25
2022-07-29T19:25:24.310Z,97585.75
2022-07-29T19:27:51.692Z,97598.53
2022-07-29T19:30:18.903Z,97601.25
2022-07-29T19:32:46.176Z,97604.28
2022-07-29T19:35:13.376Z,97595.63
2022-07-29T19:37:41.891Z,97600.59
2022-07-29T19:40:09.526Z,97605.53
2022-07-29T19:42:36.695Z,97613.03
2022-07-29T19:45:04.514Z,97606.81
2022-07-29T19:47:31.649Z,97610.00
2022-07-29T19:49:58.780Z,97601.56
2022-07-29T19:52:25.943Z,97608.25
2022-07-29T19:54:54.451Z,97605.84
2022-07-29T19:57:21.649Z,97602.53
2022-07-29T19:59:48.971Z,97603.50
2022-07-29T20:02:16.897Z,97598.38
2022-07-29T20:04:44.184Z,97602.69
2022-07-29T20:07:11.338Z,97600.78
2022-07-29T20:09:38.980Z,97605.25
2022-07-29T20:12:08.542Z,97606.84
2022-07-29T20:14:36.133Z,97614.19
2022-07-29T20:17:03.712Z,97626.19
2022-07-29T20:19:30.994Z,97632.59
2022-07-29T20:21:58.192Z,97625.34
2022-07-29T20:24:26.572Z,97624.56
2022-07-29T20:26:53.743Z,97623.59
2022-07-29T20:29:22.332Z,97621.50
2022-07-29T20:31:53.313Z,97628.41
2022-07-29T20:34:24.114Z,97632.72
2022-07-29T20:36:51.402Z,97634.63
2022-07-29T20:39:18.609Z,97640.25
2022-07-29T20:41:45.774Z,97641.66
2022-07-29T20:44:12.966Z,97643.59
2022-07-29T20:46:41.717Z,97644.38
2022-07-29T20:49:08.944Z,97646.34
2022-07-29T20:51:43.649Z,97652.56
2022-07-29T20:54:11.518Z,97653.84
2022-07-29T20:56:38.832Z,97651.44
2022-07-29T20:59:06.051Z,97643.28
2022-07-29T21:01:33.458Z,97648.25
2022-07-29T21:04:02.323Z,97642.31
2022-07-29T21:06:29.774Z,97644.06
2022-07-29T21:08:56.940Z,97651.59
2022-07-29T21:11:43.306Z,97646.47
2022-07-29T21:14:11.575Z,97654.63
2022-07-29T21:16:38.751Z,97653.66
2022-07-29T21:19:07.245Z,97649.66
2022-07-29T21:21:34.395Z,97649.31
2022-07-29T21:24:01.646Z,97662.91
2022-07-29T21:26:28.882Z,97654.94
2022-07-29T21:28:56.225Z,97663.56
2022-07-29T21:31:23.362Z,97669.81
2022-07-29T21:33:50.518Z,97669.66
2022-07-29T21:36:47.086Z,97670.13
2022-07-29T21:39:06.158Z,97671.41
2022-07-29T21:41:33.413Z,97672.69
2022-07-29T21:44:01.330Z,97679.25
2022-07-29T21:46:28.820Z,97679.75
2022-07-29T21:48:56.052Z,97682.47
2022-07-29T21:51:24.606Z,97673.81
2022-07-29T21:53:53.050Z,97676.84
2022-07-29T21:56:20.436Z,97678.13
2022-07-29T21:58:49.768Z,97675.75
2022-07-29T22:01:17.097Z,97673.34
2022-07-29T22:03:44.268Z,97673.03
2022-07-29T22:06:17.942Z,97666.78
2022-07-29T22:08:46.946Z,97675.56
2022-07-29T22:11:14.104Z,97668.03
2022-07-29T22:13:41.262Z,97676.06
2022-07-29T22:16:08.410Z,97669.66
2022-07-29T22:18:35.607Z,97666.94
2022-07-29T22:21:02.751Z,97661.81
2022-07-29T22:23:29.900Z,97665.50
2022-07-29T22:25:58.406Z,97662.47
2022-07-29T22:28:25.572Z,97658.63
2022-07-29T22:30:52.818Z,97665.19
2022-07-29T22:33:20.028Z,97664.22
2022-07-29T22:35:48.486Z,97661.03
2022-07-29T22:38:16.565Z,97653.69
2022-07-29T22:40:43.730Z,97658.00
2022-07-29T22:43:12.406Z,97652.56
2022-07-29T22:45:39.683Z,97652.09
2022-07-29T22:48:06.904Z,97647.44
2022-07-29T22:50:34.142Z,97645.03
2022-07-29T22:53:01.317Z,97642.81
2022-07-29T22:55:28.502Z,97633.06
2022-07-29T22:57:55.662Z,97634.16
2022-07-29T23:00:24.231Z,97624.88
2022-07-29T23:02:51.476Z,97626.31
2022-07-29T23:05:18.648Z,97621.06
2022-07-29T23:07:45.796Z,97629.06
2022-07-29T23:10:12.984Z,97623.47
2022-07-29T23:12:40.131Z,97626.00
2022-07-29T23:15:07.805Z,97630.53
2022-07-29T23:17:36.983Z,97626.19
2022-07-29T23:20:06.658Z,97631.78
2022-07-29T23:22:33.848Z,97627.81
2022-07-29T23:25:01.066Z,97624.78
2022-07-29T23:27:28.278Z,97625.56
2022-07-29T23:29:55.438Z,97628.78
2022-07-29T23:32:22.587Z,97623.16
2022-07-29T23:34:51.089Z,97628.28
2022-07-29T23:37:18.246Z,97618.22
2022-07-29T23:39:45.409Z,97614.53
2022-07-29T23:42:12.623Z,97605.91
2022-07-29T23:44:39.833Z,97611.34
2022-07-29T23:47:07.042Z,97614.34
2022-07-29T23:49:34.375Z,97622.81
2022-07-29T23:52:03.046Z,97616.09
2022-07-29T23:54:30.194Z,97613.38
2022-07-29T23:56:57.566Z,97619.47
2022-07-29T23:59:25.300Z,97621.88
